createdAt,value
2023-03-04T00:00:46.333Z,-0.50
2023-03-04T00:01:50.493Z,-0.50
2023-03-04T00:02:52.281Z,-0.53
2023-03-04T00:03:55.094Z,-0.53
2023-03-04T00:04:57.358Z,-0.51
2023-03-04T00:06:00.248Z,-0.51
2023-03-04T00:07:03.467Z,-0.50
2023-03-04T00:08:07.003Z,-0.50
2023-03-04T00:09:08.791Z,-0.49
2023-03-04T00:10:12.905Z,-0.48
2023-03-04T00:11:14.797Z,-0.50
2023-03-04T00:12:17.638Z,-0.48
2023-03-04T00:13:21.108Z,-0.48
2023-03-04T00:14:42.356Z,-0.51
2023-03-04T00:15:44.287Z,-0.51
2023-03-04T00:16:49.069Z,-0.50
2023-03-04T00:17:50.844Z,-0.50
2023-03-04T00:18:53.942Z,-0.48
2023-03-04T00:19:56.183Z,-0.48
2023-03-04T00:20:58.964Z,-0.47
2023-03-04T00:22:01.058Z,-0.45
2023-03-04T00:23:05.378Z,-0.45
2023-03-04T00:24:08.002Z,-0.44
2023-03-04T00:25:10.967Z,-0.43
2023-03-04T00:26:13.437Z,-0.43
2023-03-04T00:27:18.046Z,-0.44
2023-03-04T00:28:19.943Z,-0.43
2023-03-04T00:29:23.049Z,-0.44
2023-03-04T00:30:25.314Z,-0.45
2023-03-04T00:31:28.699Z,-0.46
2023-03-04T00:32:30.487Z,-0.46
2023-03-04T00:33:33.279Z,-0.47
2023-03-04T00:34:35.092Z,-0.46
2023-03-04T00:35:38.077Z,-0.46
2023-03-04T00:36:40.140Z,-0.46
2023-03-04T00:37:43.333Z,-0.45
2023-03-04T00:38:46.458Z,-0.44
2023-03-04T00:39:49.209Z,-0.43
2023-03-04T00:40:51.056Z,-0.43
2023-03-04T00:41:53.814Z,-0.42
2023-03-04T00:42:55.578Z,-0.43
2023-03-04T00:43:58.384Z,-0.45
2023-03-04T00:45:00.184Z,-0.44
2023-03-04T00:46:03.054Z,-0.45
2023-03-04T00:47:05.292Z,-0.45
2023-03-04T00:48:08.217Z,-0.44
2023-03-04T00:49:10.001Z,-0.44
2023-03-04T00:50:13.204Z,-0.43
2023-03-04T00:51:14.932Z,-0.43
2023-03-04T00:52:17.692Z,-0.43
2023-03-04T00:53:19.632Z,-0.45
2023-03-04T00:54:23.710Z,-0.45
2023-03-04T00:55:25.989Z,-0.46
2023-03-04T00:56:28.950Z,-0.47
2023-03-04T00:57:30.711Z,-0.46
2023-03-04T00:58:33.474Z,-0.45
2023-03-04T00:59:36.690Z,-0.48
2023-03-04T01:00:38.736Z,-0.48
2023-03-04T01:01:41.693Z,-0.46
2023-03-04T01:02:43.675Z,-0.47
2023-03-04T01:03:46.440Z,-0.48
2023-03-04T01:04:48.228Z,-0.48
2023-03-04T01:05:51.660Z,-0.48
2023-03-04T01:06:53.491Z,-0.46
2023-03-04T01:07:56.571Z,-0.44
2023-03-04T01:08:58.877Z,-0.44
2023-03-04T01:10:02.993Z,-0.44
2023-03-04T01:11:05.153Z,-0.44
2023-03-04T01:12:08.508Z,-0.45
2023-03-04T01:13:10.348Z,-0.45
2023-03-04T01:14:13.097Z,-0.45
2023-03-04T01:15:15.424Z,-0.43
2023-03-04T01:16:18.211Z,-0.45
2023-03-04T01:17:20.122Z,-0.43
2023-03-04T01:18:24.501Z,-0.42
2023-03-04T01:19:26.401Z,-0.43
2023-03-04T01:20:29.202Z,-0.44
2023-03-04T01:21:31.288Z,-0.43
2023-03-04T01:22:34.479Z,-0.43
2023-03-04T01:23:37.331Z,-0.43
2023-03-04T01:24:39.229Z,-0.43
2023-03-04T01:25:43.673Z,-0.43
2023-03-04T01:26:45.478Z,-0.44
2023-03-04T01:27:48.385Z,-0.45
2023-03-04T01:28:50.315Z,-0.44
2023-03-04T01:29:53.122Z,-0.45
2023-03-04T01:30:55.354Z,-0.45
2023-03-04T01:31:59.796Z,-0.45
2023-03-04T01:33:01.611Z,-0.45
2023-03-04T01:34:04.492Z,-0.45
2023-03-04T01:35:07.354Z,-0.45
2023-03-04T01:36:10.121Z,-0.44
2023-03-04T01:37:13.678Z,-0.44
2023-03-04T01:38:16.407Z,-0.44
2023-03-04T01:39:18.279Z,-0.45
2023-03-04T01:40:21.544Z,-0.44
2023-03-04T01:41:26.028Z,-0.44
2023-03-04T01:42:30.831Z,-0.44
2023-03-04T01:43:34.184Z,-0.44
2023-03-04T01:44:36.025Z,-0.43
2023-03-04T01:45:40.293Z,-0.44
2023-03-04T01:46:47.567Z,-0.44
2023-03-04T01:47:51.200Z,-0.43
2023-03-04T01:48:53.046Z,-0.43
2023-03-04T01:49:57.951Z,-0.44
2023-03-04T01:51:03.005Z,-0.43
2023-03-04T01:52:07.746Z,-0.44
2023-03-04T01:53:16.692Z,-0.42
2023-03-04T01:54:20.044Z,-0.42
2023-03-04T01:55:24.382Z,-0.40
2023-03-04T01:56:30.404Z,-0.39
2023-03-04T01:57:36.316Z,-0.40
2023-03-04T01:58:38.161Z,-0.41
2023-03-04T01:59:41.862Z,-0.40
2023-03-04T02:00:43.688Z,-0.40
2023-03-04T02:01:49.020Z,-0.40
2023-03-04T02:02:53.327Z,-0.41
2023-03-04T02:03:56.090Z,-0.41
2023-03-04T02:04:57.886Z,-0.41
2023-03-04T02:06:00.795Z,-0.41
2023-03-04T02:07:04.589Z,-0.41
2023-03-04T02:08:08.081Z,-0.41
2023-03-04T02:09:11.801Z,-0.41
2023-03-04T02:10:14.745Z,-0.41
2023-03-04T02:11:17.043Z,-0.40
2023-03-04T02:12:21.235Z,-0.40
2023-03-04T02:13:23.270Z,-0.40
2023-03-04T02:14:27.977Z,-0.38
2023-03-04T02:15:30.625Z,-0.37
2023-03-04T02:16:33.809Z,-0.36
2023-03-04T02:17:35.624Z,-0.37
2023-03-04T02:18:40.079Z,-0.37
2023-03-04T02:19:45.319Z,-0.35
2023-03-04T02:20:57.924Z,-0.36
2023-03-04T02:21:59.987Z,-0.37
2023-03-04T02:23:10.602Z,-0.39
2023-03-04T02:24:15.698Z,-0.40
2023-03-04T02:25:20.108Z,-0.40
2023-03-04T02:26:24.969Z,-0.39
2023-03-04T02:27:28.784Z,-0.39
2023-03-04T02:28:31.948Z,-0.40
2023-03-04T02:29:33.777Z,-0.40
2023-03-04T02:30:36.706Z,-0.39
2023-03-04T02:31:40.813Z,-0.42
2023-03-04T02:32:43.812Z,-0.41
2023-03-04T02:33:45.609Z,-0.42
2023-03-04T02:34:50.346Z,-0.41
2023-03-04T02:35:52.249Z,-0.41
2023-03-04T02:36:55.683Z,-0.42
2023-03-04T02:37:57.579Z,-0.43
2023-03-04T02:39:03.754Z,-0.44
2023-03-04T02:40:07.400Z,-0.44
2023-03-04T02:41:13.367Z,-0.43
2023-03-04T02:42:16.799Z,-0.42
2023-03-04T02:43:19.876Z,-0.43
2023-03-04T02:44:24.612Z,-0.43
2023-03-04T02:45:40.417Z,-0.45
2023-03-04T02:46:43.214Z,-0.46
2023-03-04T02:47:46.049Z,-0.48
2023-03-04T02:48:47.889Z,-0.48
2023-03-04T02:49:50.688Z,-0.47
2023-03-04T02:50:53.568Z,-0.46
2023-03-04T02:52:00.913Z,-0.47
2023-03-04T02:53:03.068Z,-0.49
2023-03-04T02:54:06.162Z,-0.49
2023-03-04T02:55:09.469Z,-0.49
2023-03-04T02:56:12.279Z,-0.49
2023-03-04T02:57:16.604Z,-0.50
2023-03-04T02:58:22.841Z,-0.50
2023-03-04T02:59:24.758Z,-0.49
2023-03-04T03:00:29.038Z,-0.48
2023-03-04T03:01:30.950Z,-0.48
2023-03-04T03:02:33.823Z,-0.48
2023-03-04T03:03:36.874Z,-0.48
2023-03-04T03:04:40.227Z,-0.47
2023-03-04T03:05:45.933Z,-0.47
2023-03-04T03:06:48.110Z,-0.48
2023-03-04T03:07:51.134Z,-0.48
2023-03-04T03:08:52.982Z,-0.47
2023-03-04T03:09:56.712Z,-0.46
2023-03-04T03:10:58.590Z,-0.46
2023-03-04T03:12:02.219Z,-0.45
2023-03-04T03:13:07.182Z,-0.45
2023-03-04T03:14:09.936Z,-0.46
2023-03-04T03:15:12.426Z,-0.46
2023-03-04T03:16:15.241Z,-0.46
2023-03-04T03:17:17.077Z,-0.46
2023-03-04T03:18:20.087Z,-0.47
2023-03-04T03:19:23.617Z,-0.47
2023-03-04T03:20:27.288Z,-0.47
2023-03-04T03:21:29.122Z,-0.48
2023-03-04T03:22:32.242Z,-0.48
2023-03-04T03:23:34.073Z,-0.49
2023-03-04T03:24:36.875Z,-0.47
2023-03-04T03:25:38.981Z,-0.48
2023-03-04T03:26:42.164Z,-0.46
2023-03-04T03:27:44.016Z,-0.46
2023-03-04T03:28:50.058Z,-0.45
2023-03-04T03:29:51.954Z,-0.46
2023-03-04T03:30:54.777Z,-0.47
2023-03-04T03:31:57.064Z,-0.47
2023-03-04T03:32:59.910Z,-0.47
2023-03-04T03:34:01.816Z,-0.46
2023-03-04T03:35:05.276Z,-0.46
2023-03-04T03:36:09.600Z,-0.45
2023-03-04T03:37:11.446Z,-0.45
2023-03-04T03:38:14.333Z,-0.46
2023-03-04T03:39:16.402Z,-0.46
2023-03-04T03:40:19.531Z,-0.45
2023-03-04T03:41:21.749Z,-0.45
2023-03-04T03:42:24.595Z,-0.44
2023-03-04T03:43:26.401Z,-0.44
2023-03-04T03:44:30.784Z,-0.44
2023-03-04T03:45:32.579Z,-0.42
2023-03-04T03:46:36.001Z,-0.44
2023-03-04T03:47:37.875Z,-0.44
2023-03-04T03:48:40.635Z,-0.45
2023-03-04T03:49:42.423Z,-0.45
2023-03-04T03:50:45.562Z,-0.44
2023-03-04T03:51:47.416Z,-0.45
2023-03-04T03:52:50.265Z,-0.44
2023-03-04T03:53:52.075Z,-0.43
2023-03-04T03:54:54.851Z,-0.43
2023-03-04T03:55:56.638Z,-0.42
2023-03-04T03:56:59.475Z,-0.43
2023-03-04T03:58:01.293Z,-0.44
2023-03-04T03:59:04.199Z,-0.46
2023-03-04T04:00:26.672Z,-0.51
2023-03-04T04:01:28.477Z,-0.54
2023-03-04T04:02:31.396Z,-0.55
2023-03-04T04:03:33.231Z,-0.58
2023-03-04T04:04:36.041Z,-0.59
2023-03-04T04:05:37.857Z,-0.60
2023-03-04T04:06:40.603Z,-0.61
2023-03-04T04:07:42.577Z,-0.61
2023-03-04T04:08:45.595Z,-0.62
2023-03-04T04:09:48.026Z,-0.62
2023-03-04T04:10:50.809Z,-0.63
2023-03-04T04:11:52.613Z,-0.62
2023-03-04T04:12:55.403Z,-0.63
2023-03-04T04:13:57.207Z,-0.64
2023-03-04T04:14:59.968Z,-0.65
2023-03-04T04:16:03.245Z,-0.65
2023-03-04T04:17:06.008Z,-0.67
2023-03-04T04:18:09.406Z,-0.68
2023-03-04T04:19:17.026Z,-0.68
2023-03-04T04:20:19.832Z,-0.69
2023-03-04T04:21:21.813Z,-0.70
2023-03-04T04:22:24.563Z,-0.70
2023-03-04T04:23:26.484Z,-0.70
2023-03-04T04:24:29.334Z,-0.73
2023-03-04T04:25:31.181Z,-0.74
2023-03-04T04:26:34.257Z,-0.73
2023-03-04T04:27:36.486Z,-0.72
2023-03-04T04:28:39.613Z,-0.72
2023-03-04T04:29:41.906Z,-0.69
2023-03-04T04:30:44.695Z,-0.67
2023-03-04T04:31:47.860Z,-0.68
2023-03-04T04:32:51.033Z,-0.69
2023-03-04T04:33:52.866Z,-0.69
2023-03-04T04:34:55.617Z,-0.72
2023-03-04T04:35:57.512Z,-0.73
2023-03-04T04:37:00.236Z,-0.71
2023-03-04T04:38:02.176Z,-0.73
2023-03-04T04:39:05.390Z,-0.75
2023-03-04T04:40:08.056Z,-0.74
2023-03-04T04:41:18.302Z,-0.76
2023-03-04T04:42:20.077Z,-0.77
2023-03-04T04:43:22.850Z,-0.79
2023-03-04T04:44:24.700Z,-0.78
2023-03-04T04:45:27.650Z,-0.79
2023-03-04T04:46:29.978Z,-0.79
2023-03-04T04:47:34.124Z,-0.79
2023-03-04T04:48:35.958Z,-0.79
2023-03-04T04:49:38.842Z,-0.78
2023-03-04T04:50:40.672Z,-0.80
2023-03-04T04:51:43.638Z,-0.78
2023-03-04T04:52:45.422Z,-0.77
2023-03-04T04:53:49.672Z,-0.76
2023-03-04T04:54:51.640Z,-0.74
2023-03-04T04:55:54.375Z,-0.73
2023-03-04T04:56:56.207Z,-0.73
2023-03-04T04:57:59.077Z,-0.72
2023-03-04T04:59:04.757Z,-0.71
2023-03-04T05:00:08.065Z,-0.72
2023-03-04T05:01:11.361Z,-0.70
2023-03-04T05:02:13.160Z,-0.71
2023-03-04T05:03:21.399Z,-0.72
2023-03-04T05:04:24.792Z,-0.72
2023-03-04T05:05:27.638Z,-0.72
2023-03-04T05:06:29.415Z,-0.73
2023-03-04T05:07:32.727Z,-0.75
2023-03-04T05:08:34.895Z,-0.75
2023-03-04T05:09:38.466Z,-0.74
2023-03-04T05:10:40.300Z,-0.77
2023-03-04T05:11:43.151Z,-0.76
2023-03-04T05:12:45.271Z,-0.77
2023-03-04T05:13:49.112Z,-0.79
2023-03-04T05:14:51.092Z,-0.79
2023-03-04T05:15:54.586Z,-0.79
2023-03-04T05:16:56.691Z,-0.80
2023-03-04T05:17:59.440Z,-0.80
2023-03-04T05:19:02.567Z,-0.81
2023-03-04T05:20:07.166Z,-0.81
2023-03-04T05:21:09.138Z,-0.82
2023-03-04T05:22:11.902Z,-0.82
2023-03-04T05:23:13.728Z,-0.84
2023-03-04T05:24:16.827Z,-0.85
2023-03-04T05:25:18.612Z,-0.85
2023-03-04T05:26:21.569Z,-0.83
2023-03-04T05:27:23.500Z,-0.81
2023-03-04T05:28:26.284Z,-0.81
2023-03-04T05:29:28.521Z,-0.80
2023-03-04T05:30:31.273Z,-0.79
2023-03-04T05:31:33.210Z,-0.80
2023-03-04T05:32:36.071Z,-0.80
2023-03-04T05:33:38.247Z,-0.83
2023-03-04T05:34:42.353Z,-0.85
2023-03-04T05:35:45.079Z,-0.85
2023-03-04T05:36:47.856Z,-0.86
2023-03-04T05:37:49.632Z,-0.86
2023-03-04T05:38:52.486Z,-0.87
2023-03-04T05:39:54.245Z,-0.87
2023-03-04T05:40:58.580Z,-0.87
2023-03-04T05:42:00.509Z,-0.89
2023-03-04T05:43:03.428Z,-0.88
2023-03-04T05:44:07.229Z,-0.87
2023-03-04T05:45:09.643Z,-0.89
2023-03-04T05:46:14.951Z,-0.88
2023-03-04T05:47:16.760Z,-0.87
2023-03-04T05:48:19.653Z,-0.87
2023-03-04T05:49:21.404Z,-0.86
2023-03-04T05:50:25.529Z,-0.86
2023-03-04T05:51:27.892Z,-0.86
2023-03-04T05:52:30.763Z,-0.86
2023-03-04T05:53:32.511Z,-0.86
2023-03-04T05:54:35.579Z,-0.86
2023-03-04T05:55:37.420Z,-0.82
2023-03-04T05:56:40.141Z,-0.82
2023-03-04T05:57:42.226Z,-0.80
2023-03-04T05:58:47.427Z,-0.78
2023-03-04T05:59:49.188Z,-0.79
2023-03-04T06:00:51.984Z,-0.79
2023-03-04T06:01:53.854Z,-0.80
2023-03-04T06:02:56.686Z,-0.80
2023-03-04T06:03:58.572Z,-0.80
2023-03-04T06:05:01.435Z,-0.80
2023-03-04T06:06:05.179Z,-0.80
2023-03-04T06:07:08.223Z,-0.79
2023-03-04T06:08:10.146Z,-0.79
2023-03-04T06:09:13.147Z,-0.78
2023-03-04T06:10:16.820Z,-0.77
2023-03-04T06:11:19.808Z,-0.73
2023-03-04T06:12:21.693Z,-0.74
2023-03-04T06:13:24.853Z,-0.73
2023-03-04T06:14:26.694Z,-0.72
2023-03-04T06:15:29.515Z,-0.73
2023-03-04T06:16:31.387Z,-0.72
2023-03-04T06:17:34.383Z,-0.73
2023-03-04T06:18:36.493Z,-0.73
2023-03-04T06:19:39.322Z,-0.73
2023-03-04T06:20:42.153Z,-0.73
2023-03-04T06:21:45.334Z,-0.73
2023-03-04T06:22:48.175Z,-0.71
2023-03-04T06:23:50.001Z,-0.70
2023-03-04T06:24:53.812Z,-0.68
2023-03-04T06:25:57.100Z,-0.70
2023-03-04T06:26:59.845Z,-0.70
2023-03-04T06:28:01.594Z,-0.68
2023-03-04T06:29:05.515Z,-0.66
2023-03-04T06:30:08.625Z,-0.66
2023-03-04T06:31:11.838Z,-0.65
2023-03-04T06:32:14.079Z,-0.65
2023-03-04T06:33:16.863Z,-0.64
2023-03-04T06:34:19.418Z,-0.63
2023-03-04T06:35:22.710Z,-0.62
2023-03-04T06:36:24.496Z,-0.61
2023-03-04T06:37:28.662Z,-0.59
2023-03-04T06:38:30.507Z,-0.59
2023-03-04T06:39:33.658Z,-0.59
2023-03-04T06:40:35.523Z,-0.58
2023-03-04T06:41:38.522Z,-0.58
2023-03-04T06:42:40.896Z,-0.58
2023-03-04T06:43:43.607Z,-0.56
2023-03-04T06:44:45.537Z,-0.56
2023-03-04T06:45:48.471Z,-0.55
2023-03-04T06:46:50.276Z,-0.54
2023-03-04T06:47:53.133Z,-0.54
2023-03-04T06:48:55.895Z,-0.54
2023-03-04T06:49:57.783Z,-0.52
2023-03-04T06:51:06.477Z,-0.56
2023-03-04T06:52:11.166Z,-0.56
2023-03-04T06:53:15.247Z,-0.54
2023-03-04T06:54:17.084Z,-0.54
2023-03-04T06:55:20.006Z,-0.54
2023-03-04T06:56:21.771Z,-0.53
2023-03-04T06:57:24.536Z,-0.49
2023-03-04T06:58:26.548Z,-0.47
2023-03-04T06:59:29.308Z,-0.45
2023-03-04T07:00:31.358Z,-0.44
2023-03-04T07:01:34.750Z,-0.42
2023-03-04T07:02:36.554Z,-0.42
2023-03-04T07:03:39.421Z,-0.40
2023-03-04T07:04:42.256Z,-0.39
2023-03-04T07:05:44.317Z,-0.38
2023-03-04T07:06:47.500Z,-0.36
2023-03-04T07:07:50.075Z,-0.36
2023-03-04T07:08:54.482Z,-0.37
2023-03-04T07:09:57.272Z,-0.38
2023-03-04T07:10:59.061Z,-0.39
2023-03-04T07:12:01.906Z,-0.40
2023-03-04T07:13:03.783Z,-0.40
2023-03-04T07:14:06.596Z,-0.40
2023-03-04T07:15:10.537Z,-0.40
2023-03-04T07:16:14.392Z,-0.38
2023-03-04T07:17:17.196Z,-0.38
2023-03-04T07:18:18.996Z,-0.38
2023-03-04T07:19:21.833Z,-0.39
2023-03-04T07:20:23.661Z,-0.42
2023-03-04T07:21:26.946Z,-0.41
2023-03-04T07:22:29.897Z,-0.41
2023-03-04T07:23:31.849Z,-0.40
2023-03-04T07:24:36.156Z,-0.39
2023-03-04T07:25:38.015Z,-0.37
2023-03-04T07:26:40.835Z,-0.36
2023-03-04T07:27:43.581Z,-0.34
2023-03-04T07:28:46.868Z,-0.32
2023-03-04T07:29:48.629Z,-0.32
2023-03-04T07:30:51.364Z,-0.29
2023-03-04T07:31:54.022Z,-0.27
2023-03-04T07:32:58.650Z,-0.24
2023-03-04T07:34:01.978Z,-0.23
2023-03-04T07:35:05.275Z,-0.23
2023-03-04T07:36:07.221Z,-0.24
2023-03-04T07:37:10.012Z,-0.21
2023-03-04T07:38:11.809Z,-0.21
2023-03-04T07:39:14.740Z,-0.17
2023-03-04T07:40:18.278Z,-0.17
2023-03-04T07:41:21.831Z,-0.16
2023-03-04T07:42:23.751Z,-0.18
2023-03-04T07:43:34.210Z,-0.18
2023-03-04T07:44:36.453Z,-0.19
2023-03-04T07:45:39.222Z,-0.18
2023-03-04T07:46:41.376Z,-0.18
2023-03-04T07:47:44.415Z,-0.16
2023-03-04T07:48:46.215Z,-0.13
2023-03-04T07:49:48.994Z,-0.13
2023-03-04T07:50:50.857Z,-0.11
2023-03-04T07:51:53.589Z,-0.08
2023-03-04T07:52:55.887Z,-0.07
2023-03-04T07:54:00.823Z,-0.09
2023-03-04T07:55:02.747Z,-0.09
2023-03-04T07:56:08.242Z,-0.10
2023-03-04T07:57:11.020Z,-0.11
2023-03-04T07:58:12.849Z,-0.07
2023-03-04T07:59:15.605Z,-0.06
2023-03-04T08:00:36.169Z,-0.06
2023-03-04T08:01:39.403Z,-0.05
2023-03-04T08:02:41.535Z,-0.01
2023-03-04T08:03:44.398Z,-0.02
2023-03-04T08:04:46.508Z,-0.00
2023-03-04T08:05:49.441Z,0.02
2023-03-04T08:06:51.273Z,0.04
2023-03-04T08:07:57.781Z,0.09
2023-03-04T08:09:02.504Z,0.11
2023-03-04T08:10:05.407Z,0.13
2023-03-04T08:11:11.740Z,0.16
2023-03-04T08:12:13.487Z,0.15
2023-03-04T08:13:16.303Z,0.16
2023-03-04T08:14:19.203Z,0.13
2023-03-04T08:15:21.062Z,0.12
2023-03-04T08:16:25.107Z,0.11
2023-03-04T08:17:29.653Z,0.09
2023-03-04T08:18:32.430Z,0.07
2023-03-04T08:19:35.217Z,0.07
2023-03-04T08:20:37.093Z,0.07
2023-03-04T08:21:39.837Z,0.07
2023-03-04T08:22:41.641Z,0.07
2023-03-04T08:23:44.824Z,0.06
2023-03-04T08:24:46.639Z,0.06
2023-03-04T08:25:49.491Z,0.07
2023-03-04T08:26:53.190Z,0.07
2023-03-04T08:27:55.986Z,0.08
2023-03-04T08:28:58.116Z,0.07
2023-03-04T08:30:01.112Z,0.07
2023-03-04T08:31:02.999Z,0.08
2023-03-04T08:32:06.237Z,0.07
2023-03-04T08:33:08.606Z,0.08
2023-03-04T08:34:12.993Z,0.10
2023-03-04T08:35:14.983Z,0.11
2023-03-04T08:36:17.810Z,0.11
2023-03-04T08:37:19.596Z,0.15
2023-03-04T08:38:22.348Z,0.16
2023-03-04T08:39:25.295Z,0.16
2023-03-04T08:40:27.265Z,0.15
2023-03-04T08:41:30.104Z,0.14
2023-03-04T08:42:34.407Z,0.16
2023-03-04T08:43:37.413Z,0.18
2023-03-04T08:44:40.136Z,0.21
2023-03-04T08:45:42.443Z,0.20
2023-03-04T08:46:45.314Z,0.19
2023-03-04T08:47:47.129Z,0.20
2023-03-04T08:48:49.918Z,0.21
2023-03-04T08:49:52.142Z,0.20
2023-03-04T08:50:55.155Z,0.20
2023-03-04T08:51:58.092Z,0.20
2023-03-04T08:52:59.962Z,0.20
2023-03-04T08:54:02.856Z,0.23
2023-03-04T08:55:05.788Z,0.21
2023-03-04T08:56:09.409Z,0.22
2023-03-04T08:57:12.128Z,0.23
2023-03-04T08:58:15.311Z,0.25
2023-03-04T08:59:18.048Z,0.26
2023-03-04T09:00:21.201Z,0.26
2023-03-04T09:01:24.167Z,0.28
2023-03-04T09:02:25.912Z,0.29
2023-03-04T09:03:29.479Z,0.32
2023-03-04T09:04:31.746Z,0.32
2023-03-04T09:05:34.526Z,0.34
2023-03-04T09:06:37.446Z,0.35
2023-03-04T09:07:39.223Z,0.35
2023-03-04T09:08:42.360Z,0.35
2023-03-04T09:09:44.138Z,0.34
2023-03-04T09:10:47.994Z,0.33
2023-03-04T09:11:49.942Z,0.33
2023-03-04T09:12:52.956Z,0.33
2023-03-04T09:13:57.085Z,0.36
2023-03-04T09:15:10.578Z,0.36
2023-03-04T09:16:15.610Z,0.37
2023-03-04T09:17:17.722Z,0.41
2023-03-04T09:18:21.962Z,0.43
2023-03-04T09:19:24.264Z,0.42
2023-03-04T09:20:27.088Z,0.40
2023-03-04T09:21:28.854Z,0.41
2023-03-04T09:22:31.705Z,0.39
2023-03-04T09:23:33.717Z,0.39
2023-03-04T09:24:36.452Z,0.40
2023-03-04T09:25:38.973Z,0.41
2023-03-04T09:26:42.090Z,0.40
2023-03-04T09:27:43.968Z,0.39
2023-03-04T09:28:46.720Z,0.38
2023-03-04T09:29:51.177Z,0.39
2023-03-04T09:30:53.004Z,0.40
2023-03-04T09:31:55.786Z,0.40
2023-03-04T09:32:57.812Z,0.40
2023-03-04T09:34:01.237Z,0.40
2023-03-04T09:35:03.084Z,0.40
2023-03-04T09:36:06.309Z,0.41
2023-03-04T09:37:08.108Z,0.40
2023-03-04T09:38:11.317Z,0.40
2023-03-04T09:39:13.589Z,0.37
2023-03-04T09:40:19.220Z,0.35
2023-03-04T09:41:25.544Z,0.35
2023-03-04T09:42:28.838Z,0.35
2023-03-04T09:43:32.211Z,0.36
2023-03-04T09:44:37.278Z,0.37
2023-03-04T09:45:45.642Z,0.38
2023-03-04T09:46:49.095Z,0.37
2023-03-04T09:47:52.868Z,0.37
2023-03-04T09:48:57.137Z,0.39
2023-03-04T09:50:01.735Z,0.40
2023-03-04T09:51:16.823Z,0.40
2023-03-04T09:52:25.046Z,0.40
2023-03-04T09:53:33.293Z,0.38
2023-03-04T09:54:59.344Z,0.42
2023-03-04T09:56:02.575Z,0.41
2023-03-04T09:57:18.139Z,0.44
2023-03-04T09:58:31.052Z,0.46
2023-03-04T09:59:40.457Z,0.44
2023-03-04T10:00:47.095Z,0.42
2023-03-04T10:01:52.056Z,0.43
2023-03-04T10:03:06.643Z,0.44
2023-03-04T10:04:14.047Z,0.46
2023-03-04T10:05:21.536Z,0.47
2023-03-04T10:06:24.072Z,0.48
2023-03-04T10:07:29.936Z,0.49
2023-03-04T10:08:39.089Z,0.50
2023-03-04T10:09:47.347Z,0.52
2023-03-04T10:10:49.443Z,0.55
2023-03-04T10:14:07.890Z,0.51
2023-03-04T10:15:58.394Z,0.49
2023-03-04T10:17:35.724Z,0.50
2023-03-04T10:18:45.720Z,0.51
2023-03-04T10:19:59.056Z,0.54
2023-03-04T10:21:02.955Z,0.55
2023-03-04T10:22:18.284Z,0.58
2023-03-04T10:23:23.050Z,0.59
2023-03-04T10:24:28.705Z,0.62
2023-03-04T10:25:32.301Z,0.65
2023-03-04T10:26:35.254Z,0.68
2023-03-04T10:27:37.134Z,0.71
2023-03-04T10:28:44.003Z,0.72
2023-03-04T10:29:48.670Z,0.72
2023-03-04T10:30:56.403Z,0.72
2023-03-04T10:31:58.316Z,0.72
2023-03-04T10:33:03.748Z,0.70
2023-03-04T10:34:06.154Z,0.69
2023-03-04T10:35:13.600Z,0.68
2023-03-04T10:36:34.618Z,0.68
2023-03-04T10:37:49.300Z,0.65
2023-03-04T10:38:54.042Z,0.63
2023-03-04T10:39:56.777Z,0.64
2023-03-04T10:40:59.511Z,0.63
2023-03-04T10:42:04.189Z,0.60
2023-03-04T10:43:08.275Z,0.60
2023-03-04T10:44:16.870Z,0.58
2023-03-04T10:45:23.137Z,0.56
2023-03-04T10:46:25.457Z,0.55
2023-03-04T10:47:29.981Z,0.53
2023-03-04T10:48:33.992Z,0.52
2023-03-04T10:49:51.185Z,0.52
2023-03-04T10:50:53.319Z,0.50
2023-03-04T10:52:04.312Z,0.48
2023-03-04T10:53:06.135Z,0.47
2023-03-04T10:54:11.097Z,0.48
2023-03-04T10:55:17.665Z,0.48
2023-03-04T10:56:37.055Z,0.46
2023-03-04T10:57:42.040Z,0.43
2023-03-04T10:58:43.870Z,0.43
2023-03-04T10:59:51.509Z,0.43
2023-03-04T11:01:02.596Z,0.42
2023-03-04T11:02:15.444Z,0.41
2023-03-04T11:03:28.726Z,0.42
2023-03-04T11:04:34.807Z,0.39
2023-03-04T11:05:37.612Z,0.38
2023-03-04T11:06:41.081Z,0.39
2023-03-04T11:07:55.597Z,0.38
2023-03-04T11:08:59.472Z,0.39
2023-03-04T11:10:15.943Z,0.38
2023-03-04T11:11:25.908Z,0.37
2023-03-04T11:12:34.582Z,0.36
2023-03-04T11:13:36.638Z,0.34
2023-03-04T11:14:44.273Z,0.35
2023-03-04T11:15:52.119Z,0.34
2023-03-04T11:17:10.193Z,0.32
2023-03-04T11:18:13.961Z,0.30
2023-03-04T11:19:17.865Z,0.32
2023-03-04T11:20:29.946Z,0.33
2023-03-04T11:21:35.547Z,0.34
2023-03-04T11:22:38.737Z,0.34
2023-03-04T11:23:44.555Z,0.36
2023-03-04T11:24:50.926Z,0.37
2023-03-04T11:25:57.858Z,0.36
2023-03-04T11:27:04.759Z,0.35
2023-03-04T11:28:13.734Z,0.33
2023-03-04T11:29:18.983Z,0.30
2023-03-04T11:30:30.916Z,0.32
2023-03-04T11:31:37.605Z,0.27
2023-03-04T11:32:43.296Z,0.28
2023-03-04T11:33:50.775Z,0.27
2023-03-04T11:34:56.483Z,0.28
2023-03-04T11:36:09.159Z,0.32
2023-03-04T11:37:18.149Z,0.33
2023-03-04T11:38:21.572Z,0.32
2023-03-04T11:39:33.918Z,0.32
2023-03-04T11:40:40.360Z,0.34
2023-03-04T11:41:49.457Z,0.35
2023-03-04T11:43:01.702Z,0.36
2023-03-04T11:44:08.811Z,0.37
2023-03-04T11:45:27.534Z,0.38
2023-03-04T11:47:07.756Z,0.38
2023-03-04T11:48:13.270Z,0.34
2023-03-04T11:49:42.052Z,0.36
2023-03-04T11:50:50.949Z,0.38
2023-03-04T11:52:02.925Z,0.41
2023-03-04T11:53:41.401Z,0.43
2023-03-04T11:54:49.916Z,0.43
2023-03-04T11:55:59.850Z,0.44
2023-03-04T11:57:06.610Z,0.44
2023-03-04T11:58:22.107Z,0.45
2023-03-04T11:59:46.627Z,0.44
2023-03-04T12:00:53.182Z,0.42
2023-03-04T12:02:02.967Z,0.41
2023-03-04T12:03:16.188Z,0.40
2023-03-04T12:04:41.428Z,0.37
2023-03-04T12:05:54.103Z,0.36
2023-03-04T12:07:09.096Z,0.35
2023-03-04T12:08:54.544Z,0.34
2023-03-04T12:10:03.655Z,0.31
2023-03-04T12:11:09.229Z,0.33
2023-03-04T12:12:26.489Z,0.32
2023-03-04T12:14:01.507Z,0.33
2023-03-04T12:15:13.541Z,0.33
2023-03-04T12:16:29.281Z,0.35
2023-03-04T12:17:46.964Z,0.35
2023-03-04T12:19:05.235Z,0.38
2023-03-04T12:20:21.808Z,0.37
2023-03-04T12:21:36.417Z,0.37
2023-03-04T12:22:44.331Z,0.39
2023-03-04T12:24:02.447Z,0.40
2023-03-04T12:25:18.123Z,0.44
2023-03-04T12:26:27.143Z,0.46
2023-03-04T12:27:33.228Z,0.49
2023-03-04T12:28:51.966Z,0.52
2023-03-04T12:29:58.454Z,0.53
2023-03-04T12:31:12.729Z,0.56
2023-03-04T12:32:19.495Z,0.60
2023-03-04T12:33:28.422Z,0.63
2023-03-04T12:34:46.099Z,0.67
2023-03-04T12:35:54.343Z,0.68
2023-03-04T12:37:05.168Z,0.72
2023-03-04T12:38:23.963Z,0.72
2023-03-04T12:39:31.316Z,0.73
2023-03-04T12:40:39.484Z,0.77
2023-03-04T12:41:44.847Z,0.78
2023-03-04T12:42:59.634Z,0.81
2023-03-04T12:44:07.938Z,0.81
2023-03-04T12:45:18.498Z,0.85
2023-03-04T12:46:30.869Z,0.88
2023-03-04T12:47:40.969Z,0.93
2023-03-04T12:48:45.258Z,0.96
2023-03-04T12:49:59.337Z,0.95
2023-03-04T12:51:11.509Z,0.98
2023-03-04T12:52:17.774Z,1.00
2023-03-04T12:53:27.352Z,1.05
2023-03-04T12:54:32.779Z,1.08
2023-03-04T12:55:38.342Z,1.11
2023-03-04T12:56:43.977Z,1.14
2023-03-04T12:57:47.144Z,1.16
2023-03-04T12:58:49.216Z,1.18
2023-03-04T12:59:57.450Z,1.20
2023-03-04T13:01:04.675Z,1.19
2023-03-04T13:02:33.575Z,1.21
2023-03-04T13:03:43.097Z,1.18
2023-03-04T13:04:53.461Z,1.19
2023-03-04T13:06:12.649Z,1.18
2023-03-04T13:07:18.959Z,1.16
2023-03-04T13:08:31.279Z,1.18
2023-03-04T13:09:34.335Z,1.19
2023-03-04T13:10:37.272Z,1.19
2023-03-04T13:12:03.692Z,1.18
2023-03-04T13:13:06.754Z,1.18
2023-03-04T13:14:23.613Z,1.20
2023-03-04T13:15:32.113Z,1.16
2023-03-04T13:16:37.030Z,1.16
2023-03-04T13:17:43.657Z,1.18
2023-03-04T13:18:45.702Z,1.18
2023-03-04T13:19:53.790Z,1.21
2023-03-04T13:21:07.824Z,1.24
2023-03-04T13:22:28.144Z,1.26
2023-03-04T13:23:32.802Z,1.25
2023-03-04T13:24:45.755Z,1.27
2023-03-04T13:25:50.594Z,1.27
2023-03-04T13:26:52.533Z,1.27
2023-03-04T13:28:13.350Z,1.27
2023-03-04T13:29:36.934Z,1.25
2023-03-04T13:30:44.195Z,1.25
2023-03-04T13:32:01.134Z,1.25
2023-03-04T13:33:49.490Z,1.24
2023-03-04T13:34:54.018Z,1.20
2023-03-04T13:36:01.989Z,1.20
2023-03-04T13:37:29.381Z,1.17
2023-03-04T13:38:36.294Z,1.15
2023-03-04T13:39:39.056Z,1.14
2023-03-04T13:40:40.852Z,1.14
2023-03-04T13:41:48.510Z,1.12
2023-03-04T13:42:51.692Z,1.11
2023-03-04T13:43:54.171Z,1.11
2023-03-04T13:44:59.942Z,1.08
2023-03-04T13:46:30.135Z,1.08
2023-03-04T13:47:46.791Z,1.04
2023-03-04T13:49:01.514Z,1.02
2023-03-04T13:50:31.732Z,0.99
2023-03-04T13:51:37.007Z,0.93
2023-03-04T13:52:41.641Z,0.94
2023-03-04T13:53:47.192Z,0.91
2023-03-04T13:54:49.011Z,0.89
2023-03-04T13:56:26.909Z,0.86
2023-03-04T13:57:29.680Z,0.82
2023-03-04T13:58:31.717Z,0.80
2023-03-04T13:59:41.902Z,0.78
2023-03-04T14:00:49.935Z,0.79
2023-03-04T14:01:57.709Z,0.79
2023-03-04T14:03:14.609Z,0.78
2023-03-04T14:04:18.802Z,0.76
2023-03-04T14:05:21.843Z,0.76
2023-03-04T14:06:25.343Z,0.76
2023-03-04T14:07:29.509Z,0.77
2023-03-04T14:08:31.310Z,0.78
2023-03-04T14:09:36.062Z,0.79
2023-03-04T14:10:37.830Z,0.78
2023-03-04T14:11:42.881Z,0.78
2023-03-04T14:12:46.917Z,0.79
2023-03-04T14:13:49.914Z,0.79